»·PEaware :: NGF683 KMOT-KJAC

NGF683 :: KMOT-KJAC

FLIGHT INFORMATION

Flight Status: Arrived
Operator: Unknown
More flights by this operator :: More flights under this callsign
Pilot: Roland C. (21206)
Aircraft: BEECH AIRCRAFT SUPER KING AIR 350
(B350)
More flights by this aircraft type
Origin: KMOT Minot Intl
United States
Destination: KJAC Jackson Hole
United States
More flights between these airports :: More routes between these airports
Route: DIK T268 BIL V465 DNW
File this flight plan on PilotEdge
Remarks:
Altitude:
(Current/Filed)
30,000ft
Speed:
(Current/Filed)
300kts
Departed: 25-May-20 12:27 PM
Arrived: 25-May-20 02:25 PM
Distance/Time
Traveled:
483nm/1:58
Distance/Time
To Go:
Arrived

Flight Plot

Page will automatically refresh every two minutes.

Flight plan parsing failed; only flown route is shown


Map Options




Map Legend


Flown Route
Filed Route
Departure Airport
Arrival Airport
Navaid (VOR, NDB)
Fix

Horizontal Profiles

Position Reports

Time Latitude Longitude Heading Altitude Ground
Speed
25-May-20 12:12 48.261750 -101.292877 98 1710ft 0kts
25-May-20 12:13 48.261750 -101.292877 98 1710ft 0kts
25-May-20 12:14 48.261750 -101.292877 98 1710ft 0kts
25-May-20 12:15 48.261750 -101.292877 98 1710ft 0kts
25-May-20 12:16 48.261750 -101.292877 98 1710ft 0kts
25-May-20 12:17 48.261750 -101.292877 98 1710ft 0kts
25-May-20 12:18 48.261750 -101.292877 98 1710ft 0kts
25-May-20 12:19 48.261900 -101.291856 101 1708ft 10kts
25-May-20 12:20 48.258778 -101.291107 189 1710ft 15kts
25-May-20 12:21 48.256610 -101.288892 91 1709ft 19kts
25-May-20 12:22 48.256573 -101.281128 90 1687ft 14kts
25-May-20 12:23 48.254566 -101.276716 136 1676ft 12kts
25-May-20 12:23 48.252298 -101.273710 137 1669ft 16kts
25-May-20 12:25 48.249037 -101.268734 63 1649ft 0kts
25-May-20 12:25 48.249037 -101.268734 63 1649ft 0kts
25-May-20 12:26 48.250751 -101.269453 318 1656ft 41kts
25-May-20 12:27 48.275062 -101.302872 302 2803ft 140kts
25-May-20 12:28 48.260974 -101.352870 193 4708ft 157kts
25-May-20 12:29 48.216131 -101.361494 188 6438ft 166kts
25-May-20 12:30 48.169677 -101.369937 187 8086ft 171kts
25-May-20 12:31 48.127801 -101.404108 216 9815ft 173kts
25-May-20 12:32 48.089093 -101.446850 214 11605ft 172kts
25-May-20 12:33 48.051530 -101.488529 214 13514ft 167kts
25-May-20 12:34 48.014128 -101.530006 215 15223ft 169kts
25-May-20 12:35 47.976517 -101.571640 215 16863ft 170kts
25-May-20 12:36 47.938024 -101.614164 215 18095ft 184kts
25-May-20 12:37 47.890779 -101.666276 215 18089ft 230kts
25-May-20 12:38 47.836763 -101.725706 215 18079ft 250kts
25-May-20 12:39 47.779755 -101.788247 215 18075ft 258kts
25-May-20 12:40 47.721306 -101.852178 215 18074ft 262kts
25-May-20 12:41 47.662213 -101.916625 215 18073ft 264kts
25-May-20 12:42 47.602870 -101.981157 215 18073ft 264kts
25-May-20 12:43 47.543269 -102.045777 215 18074ft 265kts
25-May-20 12:44 47.483326 -102.110586 215 18078ft 266kts
25-May-20 12:45 47.423514 -102.175065 215 18081ft 267kts
25-May-20 12:46 47.363592 -102.239477 215 18081ft 267kts
25-May-20 12:47 47.303192 -102.304217 215 18080ft 268kts
25-May-20 12:48 47.242894 -102.368657 215 18081ft 268kts
25-May-20 12:49 47.182476 -102.433046 215 18080ft 269kts
25-May-20 12:50 47.121669 -102.497661 215 18080ft 269kts
25-May-20 12:51 47.061258 -102.561665 215 18079ft 269kts
25-May-20 12:52 47.000246 -102.626132 215 18080ft 270kts
25-May-20 12:53 46.939159 -102.690486 214 18079ft 270kts
25-May-20 12:54 46.878174 -102.754547 214 18083ft 271kts
25-May-20 12:55 46.849319 -102.853777 256 18083ft 277kts
25-May-20 12:56 46.834002 -102.965106 256 18083ft 279kts
25-May-20 12:57 46.818677 -103.076510 257 18089ft 280kts
25-May-20 12:58 46.803285 -103.187583 257 18098ft 281kts
25-May-20 12:59 46.787559 -103.300271 258 18099ft 282kts
25-May-20 13:00 46.771722 -103.412862 258 18100ft 283kts
25-May-20 13:01 46.755794 -103.525321 258 18099ft 284kts
25-May-20 13:02 46.741414 -103.626030 258 20546ft 195kts
25-May-20 13:03 46.730091 -103.704759 257 22172ft 200kts
25-May-20 13:04 46.718589 -103.784483 257 23711ft 202kts
25-May-20 13:05 46.707015 -103.864373 256 25319ft 200kts
25-May-20 13:06 46.695521 -103.943221 255 26983ft 198kts
25-May-20 13:07 46.683894 -104.021822 257 28422ft 208kts
25-May-20 13:08 46.671647 -104.105619 256 29694ft 213kts
25-May-20 13:09 46.658539 -104.194118 256 30117ft 242kts
25-May-20 13:10 46.643653 -104.294109 257 30102ft 256kts
25-May-20 13:11 46.628302 -104.396411 257 30103ft 261kts
25-May-20 13:12 46.612599 -104.500356 257 30096ft 265kts
25-May-20 13:13 46.596598 -104.605626 258 30096ft 269kts
25-May-20 13:14 46.580223 -104.712617 258 30098ft 272kts
25-May-20 13:15 46.563709 -104.819769 259 30095ft 273kts
25-May-20 13:16 46.547002 -104.927451 260 30097ft 274kts
25-May-20 13:17 46.530040 -105.036065 260 30095ft 276kts
25-May-20 13:18 46.512949 -105.144815 261 30083ft 277kts
25-May-20 13:19 46.495662 -105.254028 262 30087ft 278kts
25-May-20 13:20 46.478077 -105.364420 263 30084ft 283kts
25-May-20 13:21 46.460048 -105.476857 264 30086ft 287kts
25-May-20 13:22 46.441771 -105.590030 264 30084ft 289kts
25-May-20 13:23 46.423236 -105.704031 264 30085ft 291kts
25-May-20 13:24 46.404481 -105.818672 264 30084ft 293kts
25-May-20 13:25 46.385495 -105.933883 265 30064ft 295kts
25-May-20 13:26 46.363025 -106.048823 263 30070ft 297kts
25-May-20 13:27 46.339734 -106.163939 263 30071ft 298kts
25-May-20 13:28 46.316274 -106.279081 263 30069ft 299kts
25-May-20 13:29 46.292748 -106.393935 263 30063ft 298kts
25-May-20 13:30 46.269061 -106.508873 263 30065ft 298kts
25-May-20 13:31 46.245292 -106.623546 263 30069ft 298kts
25-May-20 13:32 46.221335 -106.738456 263 30067ft 298kts
25-May-20 13:33 46.197352 -106.852904 263 30072ft 299kts
25-May-20 13:34 46.173134 -106.967754 263 30075ft 299kts
25-May-20 13:35 46.148695 -107.083061 264 30080ft 300kts
25-May-20 13:36 46.124291 -107.197525 264 30086ft 299kts
25-May-20 13:37 46.099710 -107.312210 264 30078ft 299kts
25-May-20 13:38 46.075058 -107.426582 265 30089ft 298kts
25-May-20 13:39 46.050319 -107.540702 265 30087ft 299kts
25-May-20 13:40 46.025428 -107.654958 265 30093ft 299kts
25-May-20 13:41 46.000396 -107.769162 265 30082ft 300kts
25-May-20 13:42 45.975158 -107.883708 265 30092ft 300kts
25-May-20 13:43 45.949878 -107.997841 265 30092ft 300kts
25-May-20 13:44 45.924421 -108.112145 265 30073ft 301kts
25-May-20 13:45 45.898066 -108.229909 263 29026ft 308kts
25-May-20 13:46 45.872245 -108.344560 262 27666ft 297kts
25-May-20 13:47 45.846780 -108.457123 261 26340ft 298kts
25-May-20 13:48 45.821035 -108.570262 260 25022ft 299kts
25-May-20 13:49 45.768616 -108.660539 216 24069ft 306kts
25-May-20 13:50 45.698305 -108.723690 216 24080ft 296kts
25-May-20 13:51 45.628527 -108.786121 217 24081ft 298kts
25-May-20 13:52 45.558415 -108.848661 216 24085ft 298kts
25-May-20 13:53 45.487744 -108.911499 217 24092ft 299kts
25-May-20 13:54 45.416929 -108.974251 217 24101ft 300kts
25-May-20 13:55 45.345966 -109.036975 217 24107ft 301kts
25-May-20 13:56 45.274671 -109.099803 217 24111ft 302kts
25-May-20 13:57 45.203012 -109.162765 217 24117ft 303kts
25-May-20 13:58 45.131624 -109.225308 217 24121ft 304kts
25-May-20 13:59 45.059461 -109.288338 217 24131ft 304kts
25-May-20 14:00 44.987515 -109.350993 217 24144ft 304kts
25-May-20 14:01 44.915324 -109.413671 217 24151ft 305kts
25-May-20 14:02 44.842237 -109.476967 216 23778ft 316kts
25-May-20 14:03 44.765920 -109.542828 216 23093ft 328kts
25-May-20 14:05 44.687477 -109.610302 216 22392ft 332kts
25-May-20 14:06 44.608705 -109.678028 215 21690ft 332kts
25-May-20 14:07 44.529818 -109.745519 214 20992ft 331kts
25-May-20 14:08 44.451558 -109.812258 214 20300ft 329kts
25-May-20 14:09 44.373219 -109.878798 214 19440ft 330kts
25-May-20 14:10 44.296027 -109.944066 213 18533ft 315kts
25-May-20 14:11 44.222675 -110.005904 213 17623ft 302kts
25-May-20 14:12 44.152101 -110.065210 213 16983ft 284kts
25-May-20 14:13 44.087656 -110.119223 213 16985ft 260kts
25-May-20 14:14 44.026010 -110.170839 213 16370ft 271kts
25-May-20 14:15 43.958880 -110.226914 213 14937ft 289kts
25-May-20 14:16 43.889769 -110.284454 213 13464ft 290kts
25-May-20 14:17 43.830266 -110.346015 249 12678ft 245kts
25-May-20 14:18 43.820981 -110.439310 265 11198ft 246kts
25-May-20 14:19 43.813498 -110.532506 253 10883ft 241kts
25-May-20 14:19 43.789371 -110.604311 245 9785ft 249kts
25-May-20 14:21 43.728868 -110.677760 202 8639ft 237kts
25-May-20 14:22 43.669598 -110.707363 202 7571ft 208kts
25-May-20 14:22 43.635046 -110.724171 203 6859ft 129kts
25-May-20 14:24 43.602001 -110.740389 199 6419ft 43kts
25-May-20 14:25 43.599509 -110.740420 88 6414ft 2kts
25-May-20 14:25 43.599393 -110.739050 189 6416ft 6kts
25-May-20 14:26 43.599168 -110.738693 105 6416ft 0kts
25-May-20 14:27 43.599168 -110.738693 105 6416ft 0kts

Navigation Log

Ident Type
Flight plan parsing failed, navigation log unavailable